sensor_id;sensor_type;location;lat;lon;timestamp;P1;durP1;ratioP1;P2;durP2;ratioP2
39782;SDS011;25462;51.164;17.100;2023-04-15T00:04:45;14.50;;;11.20;;
39782;SDS011;25462;51.164;17.100;2023-04-15T00:09:50;16.10;;;11.30;;
39782;SDS011;25462;51.164;17.100;2023-04-15T00:14:57;15.00;;;10.10;;
39782;SDS011;25462;51.164;17.100;2023-04-15T00:20:01;15.20;;;10.30;;
39782;SDS011;25462;51.164;17.100;2023-04-15T00:25:06;13.20;;;10.00;;
39782;SDS011;25462;51.164;17.100;2023-04-15T00:30:10;14.30;;;10.10;;
39782;SDS011;25462;51.164;17.100;2023-04-15T00:35:14;15.00;;;10.20;;
39782;SDS011;25462;51.164;17.100;2023-04-15T00:40:17;12.80;;;9.50;;
39782;SDS011;25462;51.164;17.100;2023-04-15T00:45:22;14.50;;;9.80;;
39782;SDS011;25462;51.164;17.100;2023-04-15T00:50:26;14.90;;;10.10;;
39782;SDS011;25462;51.164;17.100;2023-04-15T00:55:30;16.80;;;10.50;;
39782;SDS011;25462;51.164;17.100;2023-04-15T01:00:34;14.20;;;9.80;;
39782;SDS011;25462;51.164;17.100;2023-04-15T01:05:38;16.00;;;9.40;;
39782;SDS011;25462;51.164;17.100;2023-04-15T01:10:42;15.60;;;10.70;;
39782;SDS011;25462;51.164;17.100;2023-04-15T01:15:47;16.20;;;10.10;;
39782;SDS011;25462;51.164;17.100;2023-04-15T01:20:51;16.90;;;10.40;;
39782;SDS011;25462;51.164;17.100;2023-04-15T01:25:59;17.00;;;10.40;;
39782;SDS011;25462;51.164;17.100;2023-04-15T01:31:10;14.80;;;10.70;;
39782;SDS011;25462;51.164;17.100;2023-04-15T01:36:15;15.50;;;10.40;;
39782;SDS011;25462;51.164;17.100;2023-04-15T01:41:26;16.30;;;10.80;;
39782;SDS011;25462;51.164;17.100;2023-04-15T01:46:30;14.40;;;10.20;;
39782;SDS011;25462;51.164;17.100;2023-04-15T01:51:35;16.30;;;10.30;;
39782;SDS011;25462;51.164;17.100;2023-04-15T01:56:39;17.60;;;10.20;;
39782;SDS011;25462;51.164;17.100;2023-04-15T02:01:43;16.60;;;9.70;;
39782;SDS011;25462;51.164;17.100;2023-04-15T02:06:47;14.80;;;9.50;;
39782;SDS011;25462;51.164;17.100;2023-04-15T02:11:51;16.40;;;9.80;;
39782;SDS011;25462;51.164;17.100;2023-04-15T02:16:56;16.40;;;10.20;;
39782;SDS011;25462;51.164;17.100;2023-04-15T02:22:00;15.90;;;10.40;;
39782;SDS011;25462;51.164;17.100;2023-04-15T02:27:04;14.80;;;10.10;;
39782;SDS011;25462;51.164;17.100;2023-04-15T02:32:08;16.00;;;11.00;;
39782;SDS011;25462;51.164;17.100;2023-04-15T02:37:12;16.00;;;10.70;;
39782;SDS011;25462;51.164;17.100;2023-04-15T02:42:16;16.60;;;11.60;;
39782;SDS011;25462;51.164;17.100;2023-04-15T02:47:22;17.50;;;11.70;;
39782;SDS011;25462;51.164;17.100;2023-04-15T02:52:26;17.20;;;11.80;;
39782;SDS011;25462;51.164;17.100;2023-04-15T02:57:30;17.60;;;12.00;;
39782;SDS011;25462;51.164;17.100;2023-04-15T03:02:38;17.10;;;12.50;;
39782;SDS011;25462;51.164;17.100;2023-04-15T03:07:43;21.60;;;12.60;;
39782;SDS011;25462;51.164;17.100;2023-04-15T03:12:47;15.60;;;11.20;;
39782;SDS011;25462;51.164;17.100;2023-04-15T03:17:53;18.80;;;11.60;;
39782;SDS011;25462;51.164;17.100;2023-04-15T03:22:57;17.80;;;11.80;;
39782;SDS011;25462;51.164;17.100;2023-04-15T03:28:03;16.60;;;11.50;;
39782;SDS011;25462;51.164;17.100;2023-04-15T03:33:08;16.20;;;10.60;;
39782;SDS011;25462;51.164;17.100;2023-04-15T03:38:12;15.50;;;10.70;;
39782;SDS011;25462;51.164;17.100;2023-04-15T03:43:16;16.60;;;11.50;;
39782;SDS011;25462;51.164;17.100;2023-04-15T03:48:20;15.90;;;11.00;;
39782;SDS011;25462;51.164;17.100;2023-04-15T03:53:23;18.50;;;11.00;;
39782;SDS011;25462;51.164;17.100;2023-04-15T03:58:27;15.40;;;11.10;;
39782;SDS011;25462;51.164;17.100;2023-04-15T04:03:31;18.10;;;11.90;;
39782;SDS011;25462;51.164;17.100;2023-04-15T04:08:36;17.70;;;10.60;;
39782;SDS011;25462;51.164;17.100;2023-04-15T04:13:39;16.00;;;11.90;;
39782;SDS011;25462;51.164;17.100;2023-04-15T04:18:43;12.80;;;9.40;;
39782;SDS011;25462;51.164;17.100;2023-04-15T04:23:47;9.20;;;6.40;;
39782;SDS011;25462;51.164;17.100;2023-04-15T04:28:51;6.40;;;4.50;;
39782;SDS011;25462;51.164;17.100;2023-04-15T04:33:54;6.10;;;3.70;;
39782;SDS011;25462;51.164;17.100;2023-04-15T04:38:58;5.60;;;4.00;;
39782;SDS011;25462;51.164;17.100;2023-04-15T04:44:03;6.20;;;4.30;;
39782;SDS011;25462;51.164;17.100;2023-04-15T04:49:07;5.50;;;3.90;;
39782;SDS011;25462;51.164;17.100;2023-04-15T04:54:11;5.00;;;3.50;;
39782;SDS011;25462;51.164;17.100;2023-04-15T04:59:15;3.30;;;2.60;;
39782;SDS011;25462;51.164;17.100;2023-04-15T05:04:21;5.30;;;2.10;;
39782;SDS011;25462;51.164;17.100;2023-04-15T05:09:25;3.90;;;2.20;;
39782;SDS011;25462;51.164;17.100;2023-04-15T05:14:29;5.20;;;2.80;;
39782;SDS011;25462;51.164;17.100;2023-04-15T05:19:33;3.80;;;2.60;;
39782;SDS011;25462;51.164;17.100;2023-04-15T05:24:37;7.50;;;3.20;;
39782;SDS011;25462;51.164;17.100;2023-04-15T05:29:41;3.80;;;2.60;;
39782;SDS011;25462;51.164;17.100;2023-04-15T05:34:44;5.50;;;2.70;;
39782;SDS011;25462;51.164;17.100;2023-04-15T05:39:48;4.40;;;3.00;;
39782;SDS011;25462;51.164;17.100;2023-04-15T05:44:52;3.80;;;2.30;;
39782;SDS011;25462;51.164;17.100;2023-04-15T05:49:56;3.00;;;2.10;;
39782;SDS011;25462;51.164;17.100;2023-04-15T05:55:01;4.20;;;2.30;;
39782;SDS011;25462;51.164;17.100;2023-04-15T06:00:05;3.10;;;2.30;;
39782;SDS011;25462;51.164;17.100;2023-04-15T06:05:12;4.30;;;2.60;;
39782;SDS011;25462;51.164;17.100;2023-04-15T06:10:16;4.40;;;2.70;;
39782;SDS011;25462;51.164;17.100;2023-04-15T06:15:20;5.20;;;3.30;;
39782;SDS011;25462;51.164;17.100;2023-04-15T06:20:24;5.20;;;3.70;;
39782;SDS011;25462;51.164;17.100;2023-04-15T06:25:28;4.40;;;3.00;;
39782;SDS011;25462;51.164;17.100;2023-04-15T06:30:32;4.40;;;2.70;;
39782;SDS011;25462;51.164;17.100;2023-04-15T06:35:35;5.60;;;3.20;;
39782;SDS011;25462;51.164;17.100;2023-04-15T06:40:40;4.30;;;2.60;;
39782;SDS011;25462;51.164;17.100;2023-04-15T06:45:44;4.10;;;2.50;;
39782;SDS011;25462;51.164;17.100;2023-04-15T06:50:49;4.20;;;2.30;;
39782;SDS011;25462;51.164;17.100;2023-04-15T06:55:53;4.00;;;2.20;;
39782;SDS011;25462;51.164;17.100;2023-04-15T07:00:56;2.20;;;1.10;;
39782;SDS011;25462;51.164;17.100;2023-04-15T07:06:00;1.80;;;1.00;;
39782;SDS011;25462;51.164;17.100;2023-04-15T07:11:08;2.00;;;0.90;;
39782;SDS011;25462;51.164;17.100;2023-04-15T07:16:12;2.00;;;1.20;;
39782;SDS011;25462;51.164;17.100;2023-04-15T07:21:16;3.30;;;1.40;;
39782;SDS011;25462;51.164;17.100;2023-04-15T07:26:20;2.20;;;0.90;;
39782;SDS011;25462;51.164;17.100;2023-04-15T07:31:23;1.60;;;1.00;;
39782;SDS011;25462;51.164;17.100;2023-04-15T07:36:27;2.80;;;1.10;;
39782;SDS011;25462;51.164;17.100;2023-04-15T07:41:31;2.80;;;1.10;;
39782;SDS011;25462;51.164;17.100;2023-04-15T07:46:35;1.90;;;1.00;;
39782;SDS011;25462;51.164;17.100;2023-04-15T07:51:40;2.00;;;1.00;;
39782;SDS011;25462;51.164;17.100;2023-04-15T07:56:47;1.50;;;0.70;;
39782;SDS011;25462;51.164;17.100;2023-04-15T08:01:51;1.70;;;0.70;;
39782;SDS011;25462;51.164;17.100;2023-04-15T08:06:54;1.70;;;0.70;;
39782;SDS011;25462;51.164;17.100;2023-04-15T08:11:58;3.20;;;0.90;;
39782;SDS011;25462;51.164;17.100;2023-04-15T08:17:01;1.80;;;0.80;;
39782;SDS011;25462;51.164;17.100;2023-04-15T08:22:06;1.80;;;0.80;;
39782;SDS011;25462;51.164;17.100;2023-04-15T08:27:20;1.10;;;0.70;;
39782;SDS011;25462;51.164;17.100;2023-04-15T08:32:24;1.60;;;0.80;;
39782;SDS011;25462;51.164;17.100;2023-04-15T08:37:29;2.00;;;1.00;;
39782;SDS011;25462;51.164;17.100;2023-04-15T08:42:36;2.00;;;0.90;;
39782;SDS011;25462;51.164;17.100;2023-04-15T08:47:40;2.50;;;1.00;;
39782;SDS011;25462;51.164;17.100;2023-04-15T08:52:45;1.30;;;0.70;;
39782;SDS011;25462;51.164;17.100;2023-04-15T08:57:49;1.60;;;0.80;;
39782;SDS011;25462;51.164;17.100;2023-04-15T09:02:57;2.00;;;0.90;;
39782;SDS011;25462;51.164;17.100;2023-04-15T09:08:01;2.10;;;1.00;;
39782;SDS011;25462;51.164;17.100;2023-04-15T09:13:06;2.00;;;0.70;;
39782;SDS011;25462;51.164;17.100;2023-04-15T09:18:13;1.30;;;0.70;;
39782;SDS011;25462;51.164;17.100;2023-04-15T09:23:16;1.10;;;0.60;;
39782;SDS011;25462;51.164;17.100;2023-04-15T09:28:24;1.50;;;0.70;;
39782;SDS011;25462;51.164;17.100;2023-04-15T09:33:28;1.10;;;0.60;;
39782;SDS011;25462;51.164;17.100;2023-04-15T09:38:33;0.50;;;0.40;;
39782;SDS011;25462;51.164;17.100;2023-04-15T09:43:38;1.20;;;0.70;;
39782;SDS011;25462;51.164;17.100;2023-04-15T09:48:43;1.00;;;0.60;;
39782;SDS011;25462;51.164;17.100;2023-04-15T09:53:46;1.00;;;0.60;;
39782;SDS011;25462;51.164;17.100;2023-04-15T09:58:56;1.30;;;0.70;;
39782;SDS011;25462;51.164;17.100;2023-04-15T10:04:02;1.90;;;0.80;;
39782;SDS011;25462;51.164;17.100;2023-04-15T10:09:07;1.40;;;0.60;;
39782;SDS011;25462;51.164;17.100;2023-04-15T10:14:11;1.20;;;0.70;;
39782;SDS011;25462;51.164;17.100;2023-04-15T10:19:15;1.60;;;0.70;;
39782;SDS011;25462;51.164;17.100;2023-04-15T10:24:21;1.40;;;0.70;;
39782;SDS011;25462;51.164;17.100;2023-04-15T10:29:26;1.30;;;0.60;;
39782;SDS011;25462;51.164;17.100;2023-04-15T10:34:30;0.80;;;0.50;;
39782;SDS011;25462;51.164;17.100;2023-04-15T10:39:38;0.90;;;0.50;;
39782;SDS011;25462;51.164;17.100;2023-04-15T10:44:44;0.60;;;0.40;;
39782;SDS011;25462;51.164;17.100;2023-04-15T10:49:57;2.20;;;0.50;;
39782;SDS011;25462;51.164;17.100;2023-04-15T10:55:12;1.20;;;0.60;;
39782;SDS011;25462;51.164;17.100;2023-04-15T11:00:23;1.00;;;0.70;;
39782;SDS011;25462;51.164;17.100;2023-04-15T11:05:47;1.40;;;0.70;;
39782;SDS011;25462;51.164;17.100;2023-04-15T11:10:52;3.30;;;1.20;;
39782;SDS011;25462;51.164;17.100;2023-04-15T11:15:56;1.10;;;0.60;;
39782;SDS011;25462;51.164;17.100;2023-04-15T11:21:05;1.10;;;0.50;;
39782;SDS011;25462;51.164;17.100;2023-04-15T11:26:10;1.10;;;0.50;;
39782;SDS011;25462;51.164;17.100;2023-04-15T11:31:17;2.80;;;0.60;;
39782;SDS011;25462;51.164;17.100;2023-04-15T11:36:26;1.00;;;0.60;;
39782;SDS011;25462;51.164;17.100;2023-04-15T11:41:30;1.00;;;0.50;;
39782;SDS011;25462;51.164;17.100;2023-04-15T11:46:34;0.50;;;0.40;;
39782;SDS011;25462;51.164;17.100;2023-04-15T11:51:38;1.30;;;0.60;;
39782;SDS011;25462;51.164;17.100;2023-04-15T11:56:41;1.60;;;0.70;;
39782;SDS011;25462;51.164;17.100;2023-04-15T12:01:53;1.80;;;0.70;;
39782;SDS011;25462;51.164;17.100;2023-04-15T12:07:03;1.10;;;0.70;;
39782;SDS011;25462;51.164;17.100;2023-04-15T12:12:08;1.50;;;0.70;;
39782;SDS011;25462;51.164;17.100;2023-04-15T12:17:14;0.90;;;0.60;;
39782;SDS011;25462;51.164;17.100;2023-04-15T12:22:19;1.20;;;0.60;;
39782;SDS011;25462;51.164;17.100;2023-04-15T12:27:24;1.30;;;0.70;;
39782;SDS011;25462;51.164;17.100;2023-04-15T12:32:33;2.30;;;0.80;;
39782;SDS011;25462;51.164;17.100;2023-04-15T12:37:38;1.00;;;0.60;;
39782;SDS011;25462;51.164;17.100;2023-04-15T12:42:43;1.40;;;0.70;;
39782;SDS011;25462;51.164;17.100;2023-04-15T12:47:47;1.80;;;1.00;;
39782;SDS011;25462;51.164;17.100;2023-04-15T12:52:50;1.10;;;0.70;;
39782;SDS011;25462;51.164;17.100;2023-04-15T12:57:54;1.50;;;0.70;;
39782;SDS011;25462;51.164;17.100;2023-04-15T13:03:01;1.00;;;0.60;;
39782;SDS011;25462;51.164;17.100;2023-04-15T13:08:08;1.90;;;0.80;;
39782;SDS011;25462;51.164;17.100;2023-04-15T13:13:12;2.30;;;1.20;;
39782;SDS011;25462;51.164;17.100;2023-04-15T13:18:16;3.30;;;0.80;;
39782;SDS011;25462;51.164;17.100;2023-04-15T13:23:20;1.30;;;0.70;;
39782;SDS011;25462;51.164;17.100;2023-04-15T13:28:24;1.60;;;0.80;;
39782;SDS011;25462;51.164;17.100;2023-04-15T13:33:27;1.60;;;0.80;;
39782;SDS011;25462;51.164;17.100;2023-04-15T13:38:31;1.40;;;0.80;;
39782;SDS011;25462;51.164;17.100;2023-04-15T13:43:35;1.80;;;0.90;;
39782;SDS011;25462;51.164;17.100;2023-04-15T13:48:39;1.60;;;0.70;;
39782;SDS011;25462;51.164;17.100;2023-04-15T13:53:44;1.40;;;0.70;;
39782;SDS011;25462;51.164;17.100;2023-04-15T13:58:48;1.20;;;0.70;;
39782;SDS011;25462;51.164;17.100;2023-04-15T14:03:52;1.50;;;0.80;;
39782;SDS011;25462;51.164;17.100;2023-04-15T14:08:56;1.60;;;0.80;;
39782;SDS011;25462;51.164;17.100;2023-04-15T14:14:00;2.20;;;1.30;;
39782;SDS011;25462;51.164;17.100;2023-04-15T14:19:05;2.30;;;0.90;;
39782;SDS011;25462;51.164;17.100;2023-04-15T14:24:09;1.90;;;0.90;;
39782;SDS011;25462;51.164;17.100;2023-04-15T14:29:13;3.10;;;0.80;;
39782;SDS011;25462;51.164;17.100;2023-04-15T14:34:17;1.90;;;1.00;;
39782;SDS011;25462;51.164;17.100;2023-04-15T14:39:22;1.50;;;0.80;;
39782;SDS011;25462;51.164;17.100;2023-04-15T14:44:25;1.40;;;0.90;;
39782;SDS011;25462;51.164;17.100;2023-04-15T14:49:29;1.80;;;1.00;;
39782;SDS011;25462;51.164;17.100;2023-04-15T14:54:34;1.90;;;0.90;;
39782;SDS011;25462;51.164;17.100;2023-04-15T14:59:38;3.20;;;1.00;;
39782;SDS011;25462;51.164;17.100;2023-04-15T15:04:42;3.90;;;2.00;;
39782;SDS011;25462;51.164;17.100;2023-04-15T15:09:46;1.90;;;1.10;;
39782;SDS011;25462;51.164;17.100;2023-04-15T15:14:50;2.40;;;1.40;;
39782;SDS011;25462;51.164;17.100;2023-04-15T15:19:54;7.00;;;4.10;;
39782;SDS011;25462;51.164;17.100;2023-04-15T15:24:59;4.10;;;2.20;;
39782;SDS011;25462;51.164;17.100;2023-04-15T15:30:04;25.20;;;15.70;;
39782;SDS011;25462;51.164;17.100;2023-04-15T15:35:09;14.30;;;10.20;;
39782;SDS011;25462;51.164;17.100;2023-04-15T15:40:13;5.20;;;1.80;;
39782;SDS011;25462;51.164;17.100;2023-04-15T15:45:17;3.50;;;2.00;;
39782;SDS011;25462;51.164;17.100;2023-04-15T15:50:21;7.70;;;5.20;;
39782;SDS011;25462;51.164;17.100;2023-04-15T15:55:26;2.70;;;1.20;;
39782;SDS011;25462;51.164;17.100;2023-04-15T16:00:30;3.30;;;1.40;;
39782;SDS011;25462;51.164;17.100;2023-04-15T16:05:34;2.20;;;1.20;;
39782;SDS011;25462;51.164;17.100;2023-04-15T16:10:39;3.00;;;1.50;;
39782;SDS011;25462;51.164;17.100;2023-04-15T16:15:44;2.60;;;1.40;;
39782;SDS011;25462;51.164;17.100;2023-04-15T16:20:48;3.20;;;1.80;;
39782;SDS011;25462;51.164;17.100;2023-04-15T16:25:52;5.40;;;4.20;;
39782;SDS011;25462;51.164;17.100;2023-04-15T16:30:57;6.50;;;2.80;;
39782;SDS011;25462;51.164;17.100;2023-04-15T16:36:03;3.60;;;2.10;;
39782;SDS011;25462;51.164;17.100;2023-04-15T16:41:07;7.80;;;4.30;;
39782;SDS011;25462;51.164;17.100;2023-04-15T16:46:12;10.40;;;4.70;;
39782;SDS011;25462;51.164;17.100;2023-04-15T16:51:16;8.20;;;4.20;;
39782;SDS011;25462;51.164;17.100;2023-04-15T16:56:21;12.70;;;5.30;;
39782;SDS011;25462;51.164;17.100;2023-04-15T17:01:25;9.90;;;4.60;;
39782;SDS011;25462;51.164;17.100;2023-04-15T17:06:30;4.50;;;2.10;;
39782;SDS011;25462;51.164;17.100;2023-04-15T17:11:35;3.60;;;2.00;;
39782;SDS011;25462;51.164;17.100;2023-04-15T17:16:41;7.70;;;3.10;;
39782;SDS011;25462;51.164;17.100;2023-04-15T17:21:47;10.20;;;4.70;;
39782;SDS011;25462;51.164;17.100;2023-04-15T17:26:52;11.50;;;3.90;;
39782;SDS011;25462;51.164;17.100;2023-04-15T17:31:57;5.70;;;3.10;;
39782;SDS011;25462;51.164;17.100;2023-04-15T17:37:02;41.00;;;27.40;;
39782;SDS011;25462;51.164;17.100;2023-04-15T17:42:08;17.60;;;12.40;;
39782;SDS011;25462;51.164;17.100;2023-04-15T17:47:14;10.30;;;6.50;;
39782;SDS011;25462;51.164;17.100;2023-04-15T17:52:21;13.60;;;7.80;;
39782;SDS011;25462;51.164;17.100;2023-04-15T17:57:27;12.70;;;7.50;;
39782;SDS011;25462;51.164;17.100;2023-04-15T18:02:33;11.10;;;6.90;;
39782;SDS011;25462;51.164;17.100;2023-04-15T18:07:42;12.10;;;7.40;;
39782;SDS011;25462;51.164;17.100;2023-04-15T18:12:49;13.00;;;8.50;;
39782;SDS011;25462;51.164;17.100;2023-04-15T18:17:53;12.50;;;8.10;;
39782;SDS011;25462;51.164;17.100;2023-04-15T18:22:58;19.10;;;11.90;;
39782;SDS011;25462;51.164;17.100;2023-04-15T18:28:07;25.60;;;15.00;;
39782;SDS011;25462;51.164;17.100;2023-04-15T18:33:13;24.50;;;14.60;;
39782;SDS011;25462;51.164;17.100;2023-04-15T18:38:18;24.90;;;16.30;;
39782;SDS011;25462;51.164;17.100;2023-04-15T18:43:23;21.40;;;14.10;;
39782;SDS011;25462;51.164;17.100;2023-04-15T18:48:28;18.60;;;11.40;;
39782;SDS011;25462;51.164;17.100;2023-04-15T18:53:35;25.50;;;16.50;;
39782;SDS011;25462;51.164;17.100;2023-04-15T18:58:41;31.30;;;20.40;;
39782;SDS011;25462;51.164;17.100;2023-04-15T19:04:06;25.10;;;15.50;;
39782;SDS011;25462;51.164;17.100;2023-04-15T19:09:12;31.40;;;17.90;;
39782;SDS011;25462;51.164;17.100;2023-04-15T19:14:19;25.00;;;13.80;;
39782;SDS011;25462;51.164;17.100;2023-04-15T19:19:24;19.20;;;11.90;;
39782;SDS011;25462;51.164;17.100;2023-04-15T19:24:29;19.10;;;13.00;;
39782;SDS011;25462;51.164;17.100;2023-04-15T19:29:36;18.90;;;12.50;;
39782;SDS011;25462;51.164;17.100;2023-04-15T19:34:43;15.90;;;11.60;;
39782;SDS011;25462;51.164;17.100;2023-04-15T19:39:55;16.70;;;10.70;;
39782;SDS011;25462;51.164;17.100;2023-04-15T19:45:01;15.30;;;10.20;;
39782;SDS011;25462;51.164;17.100;2023-04-15T19:50:09;15.20;;;9.70;;
39782;SDS011;25462;51.164;17.100;2023-04-15T19:55:18;21.10;;;11.80;;
39782;SDS011;25462;51.164;17.100;2023-04-15T20:00:27;19.20;;;11.50;;
39782;SDS011;25462;51.164;17.100;2023-04-15T20:05:33;18.90;;;12.10;;
39782;SDS011;25462;51.164;17.100;2023-04-15T20:10:41;20.80;;;13.00;;
39782;SDS011;25462;51.164;17.100;2023-04-15T20:15:48;21.50;;;12.30;;
39782;SDS011;25462;51.164;17.100;2023-04-15T20:20:52;24.70;;;14.70;;
39782;SDS011;25462;51.164;17.100;2023-04-15T20:26:01;37.30;;;19.00;;
39782;SDS011;25462;51.164;17.100;2023-04-15T20:31:08;46.10;;;25.70;;
39782;SDS011;25462;51.164;17.100;2023-04-15T20:36:16;27.80;;;16.50;;
39782;SDS011;25462;51.164;17.100;2023-04-15T20:41:26;27.60;;;16.20;;
39782;SDS011;25462;51.164;17.100;2023-04-15T20:46:31;25.30;;;16.30;;
39782;SDS011;25462;51.164;17.100;2023-04-15T20:51:37;24.30;;;14.90;;
39782;SDS011;25462;51.164;17.100;2023-04-15T20:56:41;27.90;;;16.90;;
39782;SDS011;25462;51.164;17.100;2023-04-15T21:01:45;31.60;;;17.10;;
39782;SDS011;25462;51.164;17.100;2023-04-15T21:06:49;52.80;;;28.00;;
39782;SDS011;25462;51.164;17.100;2023-04-15T21:11:57;24.00;;;13.90;;
39782;SDS011;25462;51.164;17.100;2023-04-15T21:17:04;20.20;;;12.50;;
39782;SDS011;25462;51.164;17.100;2023-04-15T21:22:13;22.00;;;13.40;;
39782;SDS011;25462;51.164;17.100;2023-04-15T21:27:18;27.80;;;18.10;;
39782;SDS011;25462;51.164;17.100;2023-04-15T21:32:22;22.10;;;12.90;;
39782;SDS011;25462;51.164;17.100;2023-04-15T21:37:27;21.40;;;12.70;;
39782;SDS011;25462;51.164;17.100;2023-04-15T21:42:31;23.30;;;13.80;;
39782;SDS011;25462;51.164;17.100;2023-04-15T21:47:35;21.60;;;13.70;;
39782;SDS011;25462;51.164;17.100;2023-04-15T21:52:59;23.50;;;14.70;;
39782;SDS011;25462;51.164;17.100;2023-04-15T21:58:02;20.40;;;13.30;;
39782;SDS011;25462;51.164;17.100;2023-04-15T22:03:07;26.30;;;16.80;;
39782;SDS011;25462;51.164;17.100;2023-04-15T22:08:12;31.50;;;18.10;;
39782;SDS011;25462;51.164;17.100;2023-04-15T22:13:16;31.50;;;16.80;;
39782;SDS011;25462;51.164;17.100;2023-04-15T22:18:20;33.40;;;19.00;;
39782;SDS011;25462;51.164;17.100;2023-04-15T22:23:24;37.80;;;24.10;;
39782;SDS011;25462;51.164;17.100;2023-04-15T22:28:28;165.10;;;78.60;;
39782;SDS011;25462;51.164;17.100;2023-04-15T22:33:32;92.70;;;44.20;;
39782;SDS011;25462;51.164;17.100;2023-04-15T22:38:36;34.50;;;21.00;;
39782;SDS011;25462;51.164;17.100;2023-04-15T22:43:40;37.00;;;23.40;;
39782;SDS011;25462;51.164;17.100;2023-04-15T22:48:44;39.50;;;24.30;;
39782;SDS011;25462;51.164;17.100;2023-04-15T22:53:48;34.10;;;21.70;;
39782;SDS011;25462;51.164;17.100;2023-04-15T22:58:52;29.70;;;18.60;;
39782;SDS011;25462;51.164;17.100;2023-04-15T23:03:56;28.30;;;18.60;;
39782;SDS011;25462;51.164;17.100;2023-04-15T23:09:20;29.00;;;18.90;;
39782;SDS011;25462;51.164;17.100;2023-04-15T23:14:24;37.60;;;21.20;;
39782;SDS011;25462;51.164;17.100;2023-04-15T23:19:30;33.00;;;20.10;;
39782;SDS011;25462;51.164;17.100;2023-04-15T23:24:33;38.80;;;24.20;;
39782;SDS011;25462;51.164;17.100;2023-04-15T23:29:37;40.80;;;24.70;;
39782;SDS011;25462;51.164;17.100;2023-04-15T23:34:41;40.60;;;24.70;;
39782;SDS011;25462;51.164;17.100;2023-04-15T23:39:45;41.80;;;26.20;;
39782;SDS011;25462;51.164;17.100;2023-04-15T23:44:49;41.70;;;27.10;;
39782;SDS011;25462;51.164;17.100;2023-04-15T23:49:53;50.20;;;29.10;;
39782;SDS011;25462;51.164;17.100;2023-04-15T23:54:56;43.40;;;28.20;;
